Other Surface Observations
Issued by NWS Great Falls, MT

Home | Current Version | Previous Version | Text Only | Print | Product List | Glossary On
Versions: 1 2 3 4 5 6 7 8 9 10 11 12 13 14 15 16 17 18 19 20 21 22 23 24 25 26 27 28 29 30 31 32 33 34 35 36 37 38 39 40 41 42 43 44 45 46 47 48 49 50
891
SXUS55 KTFX 181521
OSOTFX

AREA AWOS OBSERVATIONS
NATIONAL WEATHER SERVICE GREAT FALLS MT
0821 AM MST Mon Dec 18 2017

METAR KCII 181520Z AUTO 25018G25KT 10SM 07/M04 A2966 RMK A01
METAR K6S0 181520Z AUTO 32008KT 10SM OVC060 04/M03 A2978 RMK A01
METAR K6S8 181520Z AUTO 23018KT 10SM 02/M04 A2975 RMK A01
METAR K7S0 181515Z AUTO 21008KT 10SM 04/M01 A2982 RMK A01



USA.gov is the U.S. government's official web portal to all federal, state and local government web resources and services.